Maersk Kobe — 9HA3376 — position and weather

sailwx.info

Track history (hours):
 
Tides and Currents Weather Stations Pressure Air Temp Water Temp Dewpoint Dewpoint Depression Visibility Wind Speed Wind Dir Waves Ship Positions

Maersk Kobe

Last reported at 2018-Jun-13 19:18 UTC. Time now 2018-Jun-18 09:42 UTC.
Position N 26°07' W 079°17'.

Length 304 m; draft 12 m.

Type: Cargo ship. MMSI: 229521000.

Date/timePositionNaut miles runAvg speedWind from/ knotsBaromVisibWave heightAir tempDewpointWater temp
2018-Jun-13 19:18N 26°07' W 079°17'620.7
2018-Jun-13 19:00N 26°04' W 079°23'1020.6
2018-Jun-13 18:30N 25°59' W 079°33'1020.6
2018-Jun-13 18:00N 25°54' W 079°43'1020.1
2018-Jun-13 17:30N 25°51' W 079°54'918.7
2018-Jun-13 17:00N 25°48' W 080°03'5 9.7
2018-Jun-13 16:30N 25°46' W 080°08'1 1.9
2018-Jun-13 15:57N 25°46' W 080°09'0 0.0
2018-Jun-13 15:30N 25°46' W 080°09'0 0.0
2018-Jun-13 15:00N 25°46' W 080°09'0 0.0
2018-Jun-13 14:27N 25°46' W 080°09'0 0.0
2018-Jun-13 13:57N 25°46' W 080°09'0 0.0
2018-Jun-13 13:27N 25°46' W 080°09'0 0.0
2018-Jun-13 12:57N 25°46' W 080°09'0 0.0
2018-Jun-13 12:30N 25°46' W 080°09'0 0.0
2018-Jun-13 12:00N 25°46' W 080°09'0 0.0
2018-Jun-13 11:27N 25°46' W 080°09'0 0.1
2018-Jun-13 11:00N 25°46' W 080°09'0 0.0
2018-Jun-13 10:30N 25°46' W 080°09'0 0.0
2018-Jun-13 10:00N 25°46' W 080°09'0 0.0
2018-Jun-13 09:30N 25°46' W 080°09'0 0.0
2018-Jun-13 09:00N 25°46' W 080°09'0 0.0
2018-Jun-13 08:29N 25°46' W 080°09'0 0.5
2018-Jun-13 08:00N 25°46' W 080°10'3 6.2
2018-Jun-13 07:30N 25°46' W 080°06'5 9.4
2018-Jun-13 07:00N 25°46' W 080°01'2 4.8
2018-Jun-13 06:31N 25°45' W 079°59'3 5.7
2018-Jun-13 06:00N 25°42' W 079°58'510.7
2018-Jun-13 05:30N 25°37' W 079°58'2 4.3
2018-Jun-13 05:00N 25°35' W 079°58'4 8.4
2018-Jun-13 04:30N 25°30' W 079°58'714.2
2018-Jun-13 04:00N 25°24' W 080°00'714.4
2018-Jun-13 03:30N 25°17' W 080°03'  
2018-Jun-08 20:53N 28°50' W 093°54'712.6
2018-Jun-08 20:19N 28°51' W 094°02'412.4
2018-Jun-08 19:58N 28°52' W 094°07'612.3
2018-Jun-08 19:29N 28°54' W 094°14'612.2
2018-Jun-08 18:59N 28°55' W 094°21'12 9.6
2018-Jun-08 17:42N 29°06' W 094°25'411.9
2018-Jun-08 17:24N 29°10' W 094°27'612.0
2018-Jun-08 16:53N 29°14' W 094°32'410.4
2018-Jun-08 16:30N 29°17' W 094°35'612.9
2018-Jun-08 16:00N 29°20' W 094°42'712.1
2018-Jun-08 15:26N 29°23' W 094°49'611.7
2018-Jun-08 14:58N 29°28' W 094°51'511.9
2018-Jun-08 14:30N 29°33' W 094°54'5 9.8
2018-Jun-08 14:00N 29°37' W 094°58'2 4.2
2018-Jun-08 13:30N 29°37' W 095°00'0 0.8
2018-Jun-08 13:00N 29°37' W 095°01'0 0.0
2018-Jun-08 12:27N 29°37' W 095°01'0 0.0
2018-Jun-08 12:00N 29°37' W 095°01'0 0.0
2018-Jun-08 11:30N 29°37' W 095°01'0 0.0
2018-Jun-08 10:57N 29°37' W 095°01'0 0.0
2018-Jun-08 10:30N 29°37' W 095°01'0 0.0
2018-Jun-08 10:00N 29°37' W 095°01'0 0.0
2018-Jun-08 09:27N 29°37' W 095°01'0 0.0
2018-Jun-08 08:57N 29°37' W 095°01'0 0.0
2018-Jun-08 08:24N 29°37' W 095°01'0 0.0
2018-Jun-08 08:00N 29°37' W 095°01'0 0.0
2018-Jun-08 07:30N 29°37' W 095°01'0 0.0
2018-Jun-08 07:00N 29°37' W 095°01'0 0.0
2018-Jun-08 06:27N 29°37' W 095°01'0 0.0
2018-Jun-08 05:57N 29°37' W 095°01'0 0.0
2018-Jun-08 05:30N 29°37' W 095°01'0 0.0
2018-Jun-08 05:00N 29°37' W 095°01'0 0.0
2018-Jun-08 04:30N 29°37' W 095°01'0 0.0
2018-Jun-08 04:00N 29°37' W 095°01'0 0.0
2018-Jun-08 03:30N 29°37' W 095°01'0 0.0
2018-Jun-08 03:00N 29°37' W 095°01'0 0.0
2018-Jun-08 02:30N 29°37' W 095°01'0 0.0
2018-Jun-08 02:00N 29°37' W 095°01'0 0.0
2018-Jun-08 01:30N 29°37' W 095°01'0 0.0
2018-Jun-08 01:00N 29°37' W 095°01'0 0.0
2018-Jun-08 00:30N 29°37' W 095°01'0 0.1
2018-Jun-08 00:00N 29°37' W 095°01'0 0.0
2018-Jun-07 23:30N 29°37' W 095°01'0 0.0
2018-Jun-07 23:00N 29°37' W 095°01'0 0.1
2018-Jun-07 22:30N 29°37' W 095°01'0 0.0
2018-Jun-07 21:54N 29°37' W 095°01'0 0.0
2018-Jun-07 21:27N 29°37' W 095°01'0 0.0
2018-Jun-07 20:57N 29°37' W 095°01'0 0.0
2018-Jun-07 20:30N 29°37' W 095°01'0 0.0
2018-Jun-07 19:57N 29°37' W 095°01'0 0.0
2018-Jun-07 19:30N 29°37' W 095°01'0 0.0
2018-Jun-07 19:00N 29°37' W 095°01'0 0.0
2018-Jun-07 18:30N 29°37' W 095°01'0 0.0
2018-Jun-07 18:00N 29°37' W 095°01'0 0.0
2018-Jun-07 17:30N 29°37' W 095°01'0 0.0
2018-Jun-07 16:57N 29°37' W 095°01'0 0.0
2018-Jun-07 16:30N 29°37' W 095°01'0 0.0
2018-Jun-07 16:00N 29°37' W 095°01'0 0.0
2018-Jun-07 15:30N 29°37' W 095°01'0 0.0
2018-Jun-07 15:00N 29°37' W 095°01'0 0.0
2018-Jun-07 14:30N 29°37' W 095°01'0 0.0
2018-Jun-07 14:00N 29°37' W 095°01'0 0.0
2018-Jun-07 13:30N 29°37' W 095°01'0 0.0
2018-Jun-07 13:00N 29°37' W 095°01'0 0.0
2018-Jun-07 12:30N 29°37' W 095°01'0 0.0
2018-Jun-07 12:00N 29°37' W 095°01'0 0.0
2018-Jun-07 11:30N 29°37' W 095°01'0 0.0
2018-Jun-07 11:00N 29°37' W 095°01'0 0.6
2018-Jun-07 10:30N 29°37' W 095°01'0 0.9
2018-Jun-07 10:00N 29°37' W 095°00'3 5.3
2018-Jun-07 09:30N 29°37' W 094°57'4 8.4
2018-Jun-07 09:00N 29°33' W 094°55'612.2
2018-Jun-07 08:30N 29°28' W 094°51'612.2
2018-Jun-07 08:00N 29°22' W 094°48'611.5
2018-Jun-07 07:30N 29°21' W 094°42'612.6
2018-Jun-07 07:00N 29°18' W 094°36'3 6.8
2018-Jun-07 06:31N 29°15' W 094°33'3 6.8
2018-Jun-07 06:01N 29°13' W 094°30'5 8.8
2018-Jun-07 05:30N 29°11' W 094°25'4 8.0
2018-Jun-07 04:59N 29°06' W 094°25'510.3
2018-Jun-07 04:30N 29°01' W 094°25'3 6.8
2018-Jun-07 04:00N 28°58' W 094°25'2 3.7
2018-Jun-07 03:30N 28°56' W 094°25'510.4
2018-Jun-07 03:00N 28°51' W 094°25'611.0
2018-Jun-07 02:30N 28°45' W 094°24'3 6.7
2018-Jun-07 02:00N 28°42' W 094°24'510.0
2018-Jun-07 01:29N 28°37' W 094°24'611.4
2018-Jun-07 01:00N 28°31' W 094°25'611.3
2018-Jun-07 00:30N 28°26' W 094°25'611.2
2018-Jun-07 00:00N 28°20' W 094°25'611.0
2018-Jun-06 23:30N 28°15' W 094°25'510.7
2018-Jun-06 23:00N 28°09' W 094°25'610.7
2018-Jun-06 22:28N 28°04' W 094°25'610.7
2018-Jun-06 21:56N 27°58' W 094°25'50711.9
2018-Jun-05 03:19N 19°38' W 095°54'411.7
2018-Jun-05 02:59N 19°34' W 095°54'611.7
2018-Jun-05 02:30N 19°29' W 095°55'611.8
2018-Jun-05 02:00N 19°23' W 095°57'611.7
2018-Jun-05 01:30N 19°17' W 095°58'510.3
2018-Jun-05 01:00N 19°13' W 096°01'4 8.7
2018-Jun-05 00:30N 19°12' W 096°05'3 5.0
2018-Jun-04 23:59N 19°13' W 096°08'0 0.3
2018-Jun-04 23:28N 19°13' W 096°08'0 0.0
2018-Jun-04 22:58N 19°13' W 096°08'0 0.1
2018-Jun-04 22:28N 19°13' W 096°08'0 0.0
2018-Jun-04 21:58N 19°13' W 096°08'0 0.0
2018-Jun-04 21:28N 19°13' W 096°08'0 0.0
2018-Jun-04 20:58N 19°13' W 096°08'0 0.0
2018-Jun-04 20:25N 19°13' W 096°08'0 0.0
2018-Jun-04 19:58N 19°13' W 096°08'0 0.0
2018-Jun-04 19:28N 19°13' W 096°08'0 0.0
2018-Jun-04 18:58N 19°13' W 096°08'0 0.0
2018-Jun-04 18:28N 19°13' W 096°08'0 0.0
2018-Jun-04 17:55N 19°13' W 096°08'0 0.0
2018-Jun-04 17:28N 19°13' W 096°08'0 0.0
2018-Jun-04 16:58N 19°13' W 096°08'0 0.0
2018-Jun-04 16:28N 19°13' W 096°08'0 0.0
2018-Jun-04 15:58N 19°13' W 096°08'0 0.0
2018-Jun-04 15:28N 19°13' W 096°08'0 0.0
2018-Jun-04 14:55N 19°13' W 096°08'0 0.0
2018-Jun-04 14:25N 19°13' W 096°08'0 0.0
2018-Jun-04 13:55N 19°13' W 096°08'0 0.0
2018-Jun-04 13:28N 19°13' W 096°08'0 0.0
2018-Jun-04 12:58N 19°13' W 096°08'0 0.0
2018-Jun-04 12:28N 19°13' W 096°08'0 0.0
2018-Jun-04 11:58N 19°13' W 096°08'0 0.0
2018-Jun-04 11:25N 19°13' W 096°08'0 0.0
2018-Jun-04 10:58N 19°13' W 096°08'0 0.0
2018-Jun-04 10:28N 19°13' W 096°08'0 0.0
2018-Jun-04 09:52N 19°13' W 096°08'0 0.0
2018-Jun-04 09:25N 19°13' W 096°08'0 0.0
2018-Jun-04 08:55N 19°13' W 096°08'0 0.0
2018-Jun-04 08:25N 19°13' W 096°08'0 0.0
2018-Jun-04 07:58N 19°13' W 096°08'0 0.0
2018-Jun-04 07:25N 19°13' W 096°08'0 0.0
2018-Jun-04 06:58N 19°13' W 096°08'0 0.0
2018-Jun-04 06:29N 19°13' W 096°08'1 2.9
2018-Jun-04 06:00N 19°12' W 096°07'3 6.4
2018-Jun-04 05:29N 19°12' W 096°03'4 7.4
2018-Jun-04 05:00N 19°14' W 096°01'5 9.5
2018-Jun-04 04:30N 19°19' W 096°01'510.1
2018-Jun-04 04:00N 19°23' W 096°04'0 0.6
2018-Jun-04 03:30N 19°23' W 096°04'0 0.8
2018-Jun-04 03:00N 19°23' W 096°04'0 0.5
2018-Jun-04 02:29N 19°23' W 096°03'1 1.2
2018-Jun-04 02:00N 19°23' W 096°04'4 7.2
2018-Jun-04 01:30N 19°24' W 096°07'4 7.3
2018-Jun-04 01:00N 19°25' W 096°11'1 1.2
2018-Jun-04 00:30N 19°26' W 096°11'1 1.7
2018-Jun-04 00:00N 19°25' W 096°10'1 1.7
2018-Jun-03 23:30N 19°25' W 096°09'1 1.7
2018-Jun-03 23:00N 19°24' W 096°08'1 1.7
2018-Jun-03 22:29N 19°24' W 096°07'0 1.0
2018-Jun-03 22:00N 19°24' W 096°07'1 1.0
2018-Jun-03 21:29N 19°24' W 096°07'0 0.8
2018-Jun-03 21:00N 19°23' W 096°06'0 0.6
2018-Jun-03 20:29N 19°24' W 096°06'0 0.5
2018-Jun-03 20:00N 19°24' W 096°06'0 0.4
2018-Jun-03 19:29N 19°24' W 096°05'  
Track history (hours):
 
Tides and Currents Weather Stations Pressure Air Temp Water Temp Dewpoint Dewpoint Depression Visibility Wind Speed Wind Dir Waves Ship Positions

Maersk Kobe

Last reported at 2018-Jun-13 19:18 UTC. Time now 2018-Jun-18 09:42 UTC.
Position N 26°07' W 079°17'.

Length 304 m; draft 12 m.

Type: Cargo ship. MMSI: 229521000.

Date/timePositionNaut miles runAvg speedWind from/ knotsBaromVisibWave heightAir tempDewpointWater temp
2018-Jun-13 19:18N 26°07' W 079°17'620.7
2018-Jun-13 19:00N 26°04' W 079°23'1020.6
2018-Jun-13 18:30N 25°59' W 079°33'1020.6
2018-Jun-13 18:00N 25°54' W 079°43'1020.1
2018-Jun-13 17:30N 25°51' W 079°54'918.7
2018-Jun-13 17:00N 25°48' W 080°03'5 9.7
2018-Jun-13 16:30N 25°46' W 080°08'1 1.9
2018-Jun-13 15:57N 25°46' W 080°09'0 0.0
2018-Jun-13 15:30N 25°46' W 080°09'0 0.0
2018-Jun-13 15:00N 25°46' W 080°09'0 0.0
2018-Jun-13 14:27N 25°46' W 080°09'0 0.0
2018-Jun-13 13:57N 25°46' W 080°09'0 0.0
2018-Jun-13 13:27N 25°46' W 080°09'0 0.0
2018-Jun-13 12:57N 25°46' W 080°09'0 0.0
2018-Jun-13 12:30N 25°46' W 080°09'0 0.0
2018-Jun-13 12:00N 25°46' W 080°09'0 0.0
2018-Jun-13 11:27N 25°46' W 080°09'0 0.1
2018-Jun-13 11:00N 25°46' W 080°09'0 0.0
2018-Jun-13 10:30N 25°46' W 080°09'0 0.0
2018-Jun-13 10:00N 25°46' W 080°09'0 0.0
2018-Jun-13 09:30N 25°46' W 080°09'0 0.0
2018-Jun-13 09:00N 25°46' W 080°09'0 0.0
2018-Jun-13 08:29N 25°46' W 080°09'0 0.5
2018-Jun-13 08:00N 25°46' W 080°10'3 6.2
2018-Jun-13 07:30N 25°46' W 080°06'5 9.4
2018-Jun-13 07:00N 25°46' W 080°01'2 4.8
2018-Jun-13 06:31N 25°45' W 079°59'3 5.7
2018-Jun-13 06:00N 25°42' W 079°58'510.7
2018-Jun-13 05:30N 25°37' W 079°58'2 4.3
2018-Jun-13 05:00N 25°35' W 079°58'4 8.4
2018-Jun-13 04:30N 25°30' W 079°58'714.2
2018-Jun-13 04:00N 25°24' W 080°00'714.4
2018-Jun-13 03:30N 25°17' W 080°03'  
2018-Jun-08 20:53N 28°50' W 093°54'712.6
2018-Jun-08 20:19N 28°51' W 094°02'412.4
2018-Jun-08 19:58N 28°52' W 094°07'612.3
2018-Jun-08 19:29N 28°54' W 094°14'612.2
2018-Jun-08 18:59N 28°55' W 094°21'12 9.6
2018-Jun-08 17:42N 29°06' W 094°25'411.9
2018-Jun-08 17:24N 29°10' W 094°27'612.0
2018-Jun-08 16:53N 29°14' W 094°32'410.4
2018-Jun-08 16:30N 29°17' W 094°35'612.9
2018-Jun-08 16:00N 29°20' W 094°42'712.1
2018-Jun-08 15:26N 29°23' W 094°49'611.7
2018-Jun-08 14:58N 29°28' W 094°51'511.9
2018-Jun-08 14:30N 29°33' W 094°54'5 9.8
2018-Jun-08 14:00N 29°37' W 094°58'2 4.2
2018-Jun-08 13:30N 29°37' W 095°00'0 0.8
2018-Jun-08 13:00N 29°37' W 095°01'0 0.0
2018-Jun-08 12:27N 29°37' W 095°01'0 0.0
2018-Jun-08 12:00N 29°37' W 095°01'0 0.0
2018-Jun-08 11:30N 29°37' W 095°01'0 0.0
2018-Jun-08 10:57N 29°37' W 095°01'0 0.0
2018-Jun-08 10:30N 29°37' W 095°01'0 0.0
2018-Jun-08 10:00N 29°37' W 095°01'0 0.0
2018-Jun-08 09:27N 29°37' W 095°01'0 0.0
2018-Jun-08 08:57N 29°37' W 095°01'0 0.0
2018-Jun-08 08:24N 29°37' W 095°01'0 0.0
2018-Jun-08 08:00N 29°37' W 095°01'0 0.0
2018-Jun-08 07:30N 29°37' W 095°01'0 0.0
2018-Jun-08 07:00N 29°37' W 095°01'0 0.0
2018-Jun-08 06:27N 29°37' W 095°01'0 0.0
2018-Jun-08 05:57N 29°37' W 095°01'0 0.0
2018-Jun-08 05:30N 29°37' W 095°01'0 0.0
2018-Jun-08 05:00N 29°37' W 095°01'0 0.0
2018-Jun-08 04:30N 29°37' W 095°01'0 0.0
2018-Jun-08 04:00N 29°37' W 095°01'0 0.0
2018-Jun-08 03:30N 29°37' W 095°01'0 0.0
2018-Jun-08 03:00N 29°37' W 095°01'0 0.0
2018-Jun-08 02:30N 29°37' W 095°01'0 0.0
2018-Jun-08 02:00N 29°37' W 095°01'0 0.0
2018-Jun-08 01:30N 29°37' W 095°01'0 0.0
2018-Jun-08 01:00N 29°37' W 095°01'0 0.0
2018-Jun-08 00:30N 29°37' W 095°01'0 0.1
2018-Jun-08 00:00N 29°37' W 095°01'0 0.0
2018-Jun-07 23:30N 29°37' W 095°01'0 0.0
2018-Jun-07 23:00N 29°37' W 095°01'0 0.1
2018-Jun-07 22:30N 29°37' W 095°01'0 0.0
2018-Jun-07 21:54N 29°37' W 095°01'0 0.0
2018-Jun-07 21:27N 29°37' W 095°01'0 0.0
2018-Jun-07 20:57N 29°37' W 095°01'0 0.0
2018-Jun-07 20:30N 29°37' W 095°01'0 0.0
2018-Jun-07 19:57N 29°37' W 095°01'0 0.0
2018-Jun-07 19:30N 29°37' W 095°01'0 0.0
2018-Jun-07 19:00N 29°37' W 095°01'0 0.0
2018-Jun-07 18:30N 29°37' W 095°01'0 0.0
2018-Jun-07 18:00N 29°37' W 095°01'0 0.0
2018-Jun-07 17:30N 29°37' W 095°01'0 0.0
2018-Jun-07 16:57N 29°37' W 095°01'0 0.0
2018-Jun-07 16:30N 29°37' W 095°01'0 0.0
2018-Jun-07 16:00N 29°37' W 095°01'0 0.0
2018-Jun-07 15:30N 29°37' W 095°01'0 0.0
2018-Jun-07 15:00N 29°37' W 095°01'0 0.0
2018-Jun-07 14:30N 29°37' W 095°01'0 0.0
2018-Jun-07 14:00N 29°37' W 095°01'0 0.0
2018-Jun-07 13:30N 29°37' W 095°01'0 0.0
2018-Jun-07 13:00N 29°37' W 095°01'0 0.0
2018-Jun-07 12:30N 29°37' W 095°01'0 0.0
2018-Jun-07 12:00N 29°37' W 095°01'0 0.0
2018-Jun-07 11:30N 29°37' W 095°01'0 0.0
2018-Jun-07 11:00N 29°37' W 095°01'0 0.6
2018-Jun-07 10:30N 29°37' W 095°01'0 0.9
2018-Jun-07 10:00N 29°37' W 095°00'3 5.3
2018-Jun-07 09:30N 29°37' W 094°57'4 8.4
2018-Jun-07 09:00N 29°33' W 094°55'612.2
2018-Jun-07 08:30N 29°28' W 094°51'612.2
2018-Jun-07 08:00N 29°22' W 094°48'611.5
2018-Jun-07 07:30N 29°21' W 094°42'612.6
2018-Jun-07 07:00N 29°18' W 094°36'3 6.8
2018-Jun-07 06:31N 29°15' W 094°33'3 6.8
2018-Jun-07 06:01N 29°13' W 094°30'5 8.8
2018-Jun-07 05:30N 29°11' W 094°25'4 8.0
2018-Jun-07 04:59N 29°06' W 094°25'510.3
2018-Jun-07 04:30N 29°01' W 094°25'3 6.8
2018-Jun-07 04:00N 28°58' W 094°25'2 3.7
2018-Jun-07 03:30N 28°56' W 094°25'510.4
2018-Jun-07 03:00N 28°51' W 094°25'611.0
2018-Jun-07 02:30N 28°45' W 094°24'3 6.7
2018-Jun-07 02:00N 28°42' W 094°24'510.0
2018-Jun-07 01:29N 28°37' W 094°24'611.4
2018-Jun-07 01:00N 28°31' W 094°25'611.3
2018-Jun-07 00:30N 28°26' W 094°25'611.2
2018-Jun-07 00:00N 28°20' W 094°25'611.0
2018-Jun-06 23:30N 28°15' W 094°25'510.7
2018-Jun-06 23:00N 28°09' W 094°25'610.7
2018-Jun-06 22:28N 28°04' W 094°25'610.7
2018-Jun-06 21:56N 27°58' W 094°25'50711.9
2018-Jun-05 03:19N 19°38' W 095°54'411.7
2018-Jun-05 02:59N 19°34' W 095°54'611.7
2018-Jun-05 02:30N 19°29' W 095°55'611.8
2018-Jun-05 02:00N 19°23' W 095°57'611.7
2018-Jun-05 01:30N 19°17' W 095°58'510.3
2018-Jun-05 01:00N 19°13' W 096°01'4 8.7
2018-Jun-05 00:30N 19°12' W 096°05'3 5.0
2018-Jun-04 23:59N 19°13' W 096°08'0 0.3
2018-Jun-04 23:28N 19°13' W 096°08'0 0.0
2018-Jun-04 22:58N 19°13' W 096°08'0 0.1
2018-Jun-04 22:28N 19°13' W 096°08'0 0.0
2018-Jun-04 21:58N 19°13' W 096°08'0 0.0
2018-Jun-04 21:28N 19°13' W 096°08'0 0.0
2018-Jun-04 20:58N 19°13' W 096°08'0 0.0
2018-Jun-04 20:25N 19°13' W 096°08'0 0.0
2018-Jun-04 19:58N 19°13' W 096°08'0 0.0
2018-Jun-04 19:28N 19°13' W 096°08'0 0.0
2018-Jun-04 18:58N 19°13' W 096°08'0 0.0
2018-Jun-04 18:28N 19°13' W 096°08'0 0.0
2018-Jun-04 17:55N 19°13' W 096°08'0 0.0
2018-Jun-04 17:28N 19°13' W 096°08'0 0.0
2018-Jun-04 16:58N 19°13' W 096°08'0 0.0
2018-Jun-04 16:28N 19°13' W 096°08'0 0.0
2018-Jun-04 15:58N 19°13' W 096°08'0 0.0
2018-Jun-04 15:28N 19°13' W 096°08'0 0.0
2018-Jun-04 14:55N 19°13' W 096°08'0 0.0
2018-Jun-04 14:25N 19°13' W 096°08'0 0.0
2018-Jun-04 13:55N 19°13' W 096°08'0 0.0
2018-Jun-04 13:28N 19°13' W 096°08'0 0.0
2018-Jun-04 12:58N 19°13' W 096°08'0 0.0
2018-Jun-04 12:28N 19°13' W 096°08'0 0.0
2018-Jun-04 11:58N 19°13' W 096°08'0 0.0
2018-Jun-04 11:25N 19°13' W 096°08'0 0.0
2018-Jun-04 10:58N 19°13' W 096°08'0 0.0
2018-Jun-04 10:28N 19°13' W 096°08'0 0.0
2018-Jun-04 09:52N 19°13' W 096°08'0 0.0
2018-Jun-04 09:25N 19°13' W 096°08'0 0.0
2018-Jun-04 08:55N 19°13' W 096°08'0 0.0
2018-Jun-04 08:25N 19°13' W 096°08'0 0.0
2018-Jun-04 07:58N 19°13' W 096°08'0 0.0
2018-Jun-04 07:25N 19°13' W 096°08'0 0.0
2018-Jun-04 06:58N 19°13' W 096°08'0 0.0
2018-Jun-04 06:29N 19°13' W 096°08'1 2.9
2018-Jun-04 06:00N 19°12' W 096°07'3 6.4
2018-Jun-04 05:29N 19°12' W 096°03'4 7.4
2018-Jun-04 05:00N 19°14' W 096°01'5 9.5
2018-Jun-04 04:30N 19°19' W 096°01'510.1
2018-Jun-04 04:00N 19°23' W 096°04'0 0.6
2018-Jun-04 03:30N 19°23' W 096°04'0 0.8
2018-Jun-04 03:00N 19°23' W 096°04'0 0.5
2018-Jun-04 02:29N 19°23' W 096°03'1 1.2
2018-Jun-04 02:00N 19°23' W 096°04'4 7.2
2018-Jun-04 01:30N 19°24' W 096°07'4 7.3
2018-Jun-04 01:00N 19°25' W 096°11'1 1.2
2018-Jun-04 00:30N 19°26' W 096°11'1 1.7
2018-Jun-04 00:00N 19°25' W 096°10'1 1.7
2018-Jun-03 23:30N 19°25' W 096°09'1 1.7
2018-Jun-03 23:00N 19°24' W 096°08'1 1.7
2018-Jun-03 22:29N 19°24' W 096°07'0 1.0
2018-Jun-03 22:00N 19°24' W 096°07'1 1.0
2018-Jun-03 21:29N 19°24' W 096°07'0 0.8
2018-Jun-03 21:00N 19°23' W 096°06'0 0.6
2018-Jun-03 20:29N 19°24' W 096°06'0 0.5
2018-Jun-03 20:00N 19°24' W 096°06'0 0.4
2018-Jun-03 19:29N 19°24' W 096°05'  

Dump ship's entire track history